sensor_id;sensor_type;location;lat;lon;timestamp;P1;durP1;ratioP1;P2;durP2;ratioP2
16699;SDS011;8466;52.286;21.124;2023-06-14T00:02:16;8.83;;;8.03;;
16699;SDS011;8466;52.286;21.124;2023-06-14T00:04:45;9.85;;;8.88;;
16699;SDS011;8466;52.286;21.124;2023-06-14T00:07:15;9.10;;;8.20;;
16699;SDS011;8466;52.286;21.124;2023-06-14T00:09:43;10.97;;;8.50;;
16699;SDS011;8466;52.286;21.124;2023-06-14T00:12:12;9.25;;;8.20;;
16699;SDS011;8466;52.286;21.124;2023-06-14T00:14:40;8.38;;;7.68;;
16699;SDS011;8466;52.286;21.124;2023-06-14T00:17:10;8.77;;;7.78;;
16699;SDS011;8466;52.286;21.124;2023-06-14T00:19:39;9.15;;;7.90;;
16699;SDS011;8466;52.286;21.124;2023-06-14T00:22:08;9.90;;;8.68;;
16699;SDS011;8466;52.286;21.124;2023-06-14T00:24:37;8.38;;;7.28;;
16699;SDS011;8466;52.286;21.124;2023-06-14T00:27:06;9.45;;;7.85;;
16699;SDS011;8466;52.286;21.124;2023-06-14T00:29:35;9.68;;;8.70;;
16699;SDS011;8466;52.286;21.124;2023-06-14T00:32:04;13.00;;;8.65;;
16699;SDS011;8466;52.286;21.124;2023-06-14T00:34:35;9.75;;;8.75;;
16699;SDS011;8466;52.286;21.124;2023-06-14T00:37:04;8.57;;;7.85;;
16699;SDS011;8466;52.286;21.124;2023-06-14T00:39:33;9.00;;;8.20;;
16699;SDS011;8466;52.286;21.124;2023-06-14T00:42:01;9.27;;;8.43;;
16699;SDS011;8466;52.286;21.124;2023-06-14T00:44:31;9.82;;;8.93;;
16699;SDS011;8466;52.286;21.124;2023-06-14T00:46:59;9.32;;;8.48;;
16699;SDS011;8466;52.286;21.124;2023-06-14T00:49:28;10.38;;;8.98;;
16699;SDS011;8466;52.286;21.124;2023-06-14T00:51:59;10.55;;;8.77;;
16699;SDS011;8466;52.286;21.124;2023-06-14T00:54:28;9.68;;;8.70;;
16699;SDS011;8466;52.286;21.124;2023-06-14T00:56:57;9.30;;;8.50;;
16699;SDS011;8466;52.286;21.124;2023-06-14T00:59:26;9.35;;;8.52;;
16699;SDS011;8466;52.286;21.124;2023-06-14T01:01:55;9.68;;;8.77;;
16699;SDS011;8466;52.286;21.124;2023-06-14T01:04:26;11.65;;;10.02;;
16699;SDS011;8466;52.286;21.124;2023-06-14T01:06:56;10.95;;;9.73;;
16699;SDS011;8466;52.286;21.124;2023-06-14T01:09:37;10.85;;;9.80;;
16699;SDS011;8466;52.286;21.124;2023-06-14T01:12:17;11.63;;;10.50;;
16699;SDS011;8466;52.286;21.124;2023-06-14T01:14:52;13.73;;;10.40;;
16699;SDS011;8466;52.286;21.124;2023-06-14T01:17:23;11.35;;;10.32;;
16699;SDS011;8466;52.286;21.124;2023-06-14T01:19:53;10.90;;;9.77;;
16699;SDS011;8466;52.286;21.124;2023-06-14T01:22:25;10.65;;;9.40;;
16699;SDS011;8466;52.286;21.124;2023-06-14T01:24:56;9.85;;;8.95;;
16699;SDS011;8466;52.286;21.124;2023-06-14T01:27:25;9.25;;;8.35;;
16699;SDS011;8466;52.286;21.124;2023-06-14T01:29:56;10.68;;;9.57;;
16699;SDS011;8466;52.286;21.124;2023-06-14T01:32:26;10.82;;;9.07;;
16699;SDS011;8466;52.286;21.124;2023-06-14T01:34:57;9.63;;;8.65;;
16699;SDS011;8466;52.286;21.124;2023-06-14T01:37:26;9.52;;;8.73;;
16699;SDS011;8466;52.286;21.124;2023-06-14T01:39:57;14.48;;;9.25;;
16699;SDS011;8466;52.286;21.124;2023-06-14T01:42:26;9.27;;;8.38;;
16699;SDS011;8466;52.286;21.124;2023-06-14T01:44:55;11.32;;;9.05;;
16699;SDS011;8466;52.286;21.124;2023-06-14T01:47:25;9.55;;;8.65;;
16699;SDS011;8466;52.286;21.124;2023-06-14T01:49:54;10.10;;;8.57;;
16699;SDS011;8466;52.286;21.124;2023-06-14T01:52:23;8.93;;;8.18;;
16699;SDS011;8466;52.286;21.124;2023-06-14T01:54:52;9.10;;;8.30;;
16699;SDS011;8466;52.286;21.124;2023-06-14T01:57:22;9.35;;;8.50;;
16699;SDS011;8466;52.286;21.124;2023-06-14T01:59:54;11.15;;;8.77;;
16699;SDS011;8466;52.286;21.124;2023-06-14T02:02:23;9.68;;;8.88;;
16699;SDS011;8466;52.286;21.124;2023-06-14T02:04:52;9.30;;;8.50;;
16699;SDS011;8466;52.286;21.124;2023-06-14T02:07:24;8.70;;;7.97;;
16699;SDS011;8466;52.286;21.124;2023-06-14T02:09:53;9.43;;;8.45;;
16699;SDS011;8466;52.286;21.124;2023-06-14T02:12:23;8.73;;;7.88;;
16699;SDS011;8466;52.286;21.124;2023-06-14T02:14:52;9.77;;;8.88;;
16699;SDS011;8466;52.286;21.124;2023-06-14T02:17:20;10.25;;;8.43;;
16699;SDS011;8466;52.286;21.124;2023-06-14T02:19:49;9.80;;;8.82;;
16699;SDS011;8466;52.286;21.124;2023-06-14T02:22:18;10.07;;;9.18;;
16699;SDS011;8466;52.286;21.124;2023-06-14T02:24:48;9.30;;;8.20;;
16699;SDS011;8466;52.286;21.124;2023-06-14T02:27:28;9.50;;;8.60;;
16699;SDS011;8466;52.286;21.124;2023-06-14T02:29:57;9.80;;;8.85;;
16699;SDS011;8466;52.286;21.124;2023-06-14T02:32:26;10.48;;;9.48;;
16699;SDS011;8466;52.286;21.124;2023-06-14T02:34:54;9.70;;;8.73;;
16699;SDS011;8466;52.286;21.124;2023-06-14T02:37:23;9.80;;;8.90;;
16699;SDS011;8466;52.286;21.124;2023-06-14T02:39:52;10.85;;;9.82;;
16699;SDS011;8466;52.286;21.124;2023-06-14T02:42:21;11.77;;;10.57;;
16699;SDS011;8466;52.286;21.124;2023-06-14T02:44:51;10.85;;;9.65;;
16699;SDS011;8466;52.286;21.124;2023-06-14T02:47:19;9.98;;;9.15;;
16699;SDS011;8466;52.286;21.124;2023-06-14T02:49:48;11.82;;;10.20;;
16699;SDS011;8466;52.286;21.124;2023-06-14T02:52:17;17.02;;;15.63;;
16699;SDS011;8466;52.286;21.124;2023-06-14T02:54:47;11.52;;;10.43;;
16699;SDS011;8466;52.286;21.124;2023-06-14T02:57:15;78.07;;;57.85;;
16699;SDS011;8466;52.286;21.124;2023-06-14T02:59:44;32.47;;;27.13;;
16699;SDS011;8466;52.286;21.124;2023-06-14T03:02:14;21.83;;;19.20;;
16699;SDS011;8466;52.286;21.124;2023-06-14T03:04:43;17.40;;;15.70;;
16699;SDS011;8466;52.286;21.124;2023-06-14T03:07:13;11.00;;;9.90;;
16699;SDS011;8466;52.286;21.124;2023-06-14T03:09:48;12.60;;;10.05;;
16699;SDS011;8466;52.286;21.124;2023-06-14T03:12:17;12.57;;;11.48;;
16699;SDS011;8466;52.286;21.124;2023-06-14T03:14:47;12.27;;;11.07;;
16699;SDS011;8466;52.286;21.124;2023-06-14T03:17:18;11.07;;;10.05;;
16699;SDS011;8466;52.286;21.124;2023-06-14T03:19:47;9.88;;;8.88;;
16699;SDS011;8466;52.286;21.124;2023-06-14T03:22:16;10.63;;;9.32;;
16699;SDS011;8466;52.286;21.124;2023-06-14T03:24:44;9.30;;;8.32;;
16699;SDS011;8466;52.286;21.124;2023-06-14T03:27:14;10.65;;;9.65;;
16699;SDS011;8466;52.286;21.124;2023-06-14T03:29:42;10.27;;;9.15;;
16699;SDS011;8466;52.286;21.124;2023-06-14T03:32:11;10.77;;;9.77;;
16699;SDS011;8466;52.286;21.124;2023-06-14T03:34:41;12.70;;;11.40;;
16699;SDS011;8466;52.286;21.124;2023-06-14T03:37:11;17.05;;;12.95;;
16699;SDS011;8466;52.286;21.124;2023-06-14T03:39:40;11.52;;;10.32;;
16699;SDS011;8466;52.286;21.124;2023-06-14T03:42:15;9.68;;;8.77;;
16699;SDS011;8466;52.286;21.124;2023-06-14T03:44:44;54.58;;;35.65;;
16699;SDS011;8466;52.286;21.124;2023-06-14T03:47:12;37.58;;;26.98;;
16699;SDS011;8466;52.286;21.124;2023-06-14T03:49:43;50.28;;;36.65;;
16699;SDS011;8466;52.286;21.124;2023-06-14T03:52:11;28.90;;;21.42;;
16699;SDS011;8466;52.286;21.124;2023-06-14T03:54:40;39.40;;;29.67;;
16699;SDS011;8466;52.286;21.124;2023-06-14T03:57:14;60.45;;;41.72;;
16699;SDS011;8466;52.286;21.124;2023-06-14T03:59:43;26.33;;;19.90;;
16699;SDS011;8466;52.286;21.124;2023-06-14T04:02:12;22.58;;;17.33;;
16699;SDS011;8466;52.286;21.124;2023-06-14T04:04:44;25.17;;;18.70;;
16699;SDS011;8466;52.286;21.124;2023-06-14T04:07:13;10.57;;;9.48;;
16699;SDS011;8466;52.286;21.124;2023-06-14T04:09:42;8.77;;;7.93;;
16699;SDS011;8466;52.286;21.124;2023-06-14T04:12:10;9.02;;;8.18;;
16699;SDS011;8466;52.286;21.124;2023-06-14T04:14:40;7.70;;;7.00;;
16699;SDS011;8466;52.286;21.124;2023-06-14T04:17:08;10.27;;;9.27;;
16699;SDS011;8466;52.286;21.124;2023-06-14T04:19:37;8.90;;;8.10;;
16699;SDS011;8466;52.286;21.124;2023-06-14T04:22:07;10.88;;;9.88;;
16699;SDS011;8466;52.286;21.124;2023-06-14T04:24:37;14.90;;;10.45;;
16699;SDS011;8466;52.286;21.124;2023-06-14T04:27:06;17.15;;;13.40;;
16699;SDS011;8466;52.286;21.124;2023-06-14T04:29:34;17.25;;;13.55;;
16699;SDS011;8466;52.286;21.124;2023-06-14T04:32:03;11.25;;;9.65;;
16699;SDS011;8466;52.286;21.124;2023-06-14T04:34:36;6.90;;;6.30;;
16699;SDS011;8466;52.286;21.124;2023-06-14T04:37:08;7.57;;;6.90;;
16699;SDS011;8466;52.286;21.124;2023-06-14T04:39:38;6.97;;;6.38;;
16699;SDS011;8466;52.286;21.124;2023-06-14T04:42:08;7.75;;;7.03;;
16699;SDS011;8466;52.286;21.124;2023-06-14T04:44:38;7.70;;;7.00;;
16699;SDS011;8466;52.286;21.124;2023-06-14T04:47:07;8.57;;;7.45;;
16699;SDS011;8466;52.286;21.124;2023-06-14T04:49:35;7.50;;;6.80;;
16699;SDS011;8466;52.286;21.124;2023-06-14T04:52:05;7.72;;;7.03;;
16699;SDS011;8466;52.286;21.124;2023-06-14T04:54:36;8.25;;;7.45;;
16699;SDS011;8466;52.286;21.124;2023-06-14T04:57:08;7.63;;;6.93;;
16699;SDS011;8466;52.286;21.124;2023-06-14T04:59:40;31.60;;;28.80;;
16699;SDS011;8466;52.286;21.124;2023-06-14T05:02:10;15.00;;;12.13;;
16699;SDS011;8466;52.286;21.124;2023-06-14T05:04:39;10.60;;;9.63;;
16699;SDS011;8466;52.286;21.124;2023-06-14T05:07:09;9.73;;;8.77;;
16699;SDS011;8466;52.286;21.124;2023-06-14T05:09:38;14.98;;;13.55;;
16699;SDS011;8466;52.286;21.124;2023-06-14T05:12:07;9.93;;;8.82;;
16699;SDS011;8466;52.286;21.124;2023-06-14T05:14:36;10.20;;;9.32;;
16699;SDS011;8466;52.286;21.124;2023-06-14T05:17:06;15.18;;;13.07;;
16699;SDS011;8466;52.286;21.124;2023-06-14T05:19:35;11.07;;;9.27;;
16699;SDS011;8466;52.286;21.124;2023-06-14T05:22:04;9.13;;;8.30;;
16699;SDS011;8466;52.286;21.124;2023-06-14T05:24:34;9.88;;;8.98;;
16699;SDS011;8466;52.286;21.124;2023-06-14T05:27:03;10.95;;;9.85;;
16699;SDS011;8466;52.286;21.124;2023-06-14T05:29:32;12.07;;;10.68;;
16699;SDS011;8466;52.286;21.124;2023-06-14T05:32:01;29.65;;;27.23;;
16699;SDS011;8466;52.286;21.124;2023-06-14T05:34:30;17.83;;;16.35;;
16699;SDS011;8466;52.286;21.124;2023-06-14T05:36:58;10.15;;;9.25;;
16699;SDS011;8466;52.286;21.124;2023-06-14T05:39:28;9.90;;;8.90;;
16699;SDS011;8466;52.286;21.124;2023-06-14T05:41:58;15.05;;;9.18;;
16699;SDS011;8466;52.286;21.124;2023-06-14T05:44:26;15.73;;;8.70;;
16699;SDS011;8466;52.286;21.124;2023-06-14T05:46:55;11.77;;;8.35;;
16699;SDS011;8466;52.286;21.124;2023-06-14T05:49:24;8.60;;;7.78;;
16699;SDS011;8466;52.286;21.124;2023-06-14T05:51:52;8.48;;;7.60;;
16699;SDS011;8466;52.286;21.124;2023-06-14T05:54:21;13.35;;;12.13;;
16699;SDS011;8466;52.286;21.124;2023-06-14T05:56:50;8.00;;;7.30;;
16699;SDS011;8466;52.286;21.124;2023-06-14T05:59:20;7.20;;;6.60;;
16699;SDS011;8466;52.286;21.124;2023-06-14T06:01:49;7.55;;;6.82;;
16699;SDS011;8466;52.286;21.124;2023-06-14T06:04:18;8.25;;;7.45;;
16699;SDS011;8466;52.286;21.124;2023-06-14T06:06:47;7.70;;;7.00;;
16699;SDS011;8466;52.286;21.124;2023-06-14T06:09:15;10.65;;;9.65;;
16699;SDS011;8466;52.286;21.124;2023-06-14T06:11:44;16.52;;;13.45;;
16699;SDS011;8466;52.286;21.124;2023-06-14T06:14:18;19.20;;;13.65;;
16699;SDS011;8466;52.286;21.124;2023-06-14T06:16:48;10.15;;;9.18;;
16699;SDS011;8466;52.286;21.124;2023-06-14T06:19:19;10.32;;;9.48;;
16699;SDS011;8466;52.286;21.124;2023-06-14T06:21:47;9.27;;;8.40;;
16699;SDS011;8466;52.286;21.124;2023-06-14T06:24:16;9.88;;;8.98;;
16699;SDS011;8466;52.286;21.124;2023-06-14T06:26:45;9.05;;;7.60;;
16699;SDS011;8466;52.286;21.124;2023-06-14T06:29:14;11.68;;;7.82;;
16699;SDS011;8466;52.286;21.124;2023-06-14T06:31:44;10.30;;;6.95;;
16699;SDS011;8466;52.286;21.124;2023-06-14T06:34:13;9.80;;;7.80;;
16699;SDS011;8466;52.286;21.124;2023-06-14T06:36:42;12.43;;;8.20;;
16699;SDS011;8466;52.286;21.124;2023-06-14T06:39:10;9.00;;;7.90;;
16699;SDS011;8466;52.286;21.124;2023-06-14T06:41:39;10.93;;;9.23;;
16699;SDS011;8466;52.286;21.124;2023-06-14T06:44:07;9.38;;;8.38;;
16699;SDS011;8466;52.286;21.124;2023-06-14T06:46:38;8.57;;;7.88;;
16699;SDS011;8466;52.286;21.124;2023-06-14T06:49:11;11.65;;;9.90;;
16699;SDS011;8466;52.286;21.124;2023-06-14T06:51:40;12.38;;;11.05;;
16699;SDS011;8466;52.286;21.124;2023-06-14T06:54:10;12.80;;;8.27;;
16699;SDS011;8466;52.286;21.124;2023-06-14T06:56:39;8.07;;;7.20;;
16699;SDS011;8466;52.286;21.124;2023-06-14T06:59:08;10.85;;;8.50;;
16699;SDS011;8466;52.286;21.124;2023-06-14T07:01:37;10.98;;;8.80;;
16699;SDS011;8466;52.286;21.124;2023-06-14T07:04:05;9.35;;;8.45;;
16699;SDS011;8466;52.286;21.124;2023-06-14T07:06:36;14.82;;;13.32;;
16699;SDS011;8466;52.286;21.124;2023-06-14T07:09:05;13.98;;;12.50;;
16699;SDS011;8466;52.286;21.124;2023-06-14T07:11:39;9.95;;;9.05;;
16699;SDS011;8466;52.286;21.124;2023-06-14T07:14:08;9.38;;;8.32;;
16699;SDS011;8466;52.286;21.124;2023-06-14T07:16:37;9.18;;;7.07;;
16699;SDS011;8466;52.286;21.124;2023-06-14T07:19:05;7.88;;;7.07;;
16699;SDS011;8466;52.286;21.124;2023-06-14T07:21:37;9.82;;;7.00;;
16699;SDS011;8466;52.286;21.124;2023-06-14T07:24:06;8.95;;;6.88;;
16699;SDS011;8466;52.286;21.124;2023-06-14T07:26:37;7.65;;;6.10;;
16699;SDS011;8466;52.286;21.124;2023-06-14T07:29:06;8.00;;;6.40;;
16699;SDS011;8466;52.286;21.124;2023-06-14T07:31:35;7.05;;;6.30;;
16699;SDS011;8466;52.286;21.124;2023-06-14T07:34:04;10.85;;;6.55;;
16699;SDS011;8466;52.286;21.124;2023-06-14T07:36:32;7.85;;;6.18;;
16699;SDS011;8466;52.286;21.124;2023-06-14T07:39:03;7.40;;;5.95;;
16699;SDS011;8466;52.286;21.124;2023-06-14T07:41:32;6.78;;;5.63;;
16699;SDS011;8466;52.286;21.124;2023-06-14T07:44:02;5.93;;;5.32;;
16699;SDS011;8466;52.286;21.124;2023-06-14T07:46:31;6.85;;;5.72;;
16699;SDS011;8466;52.286;21.124;2023-06-14T07:49:01;5.65;;;5.15;;
16699;SDS011;8466;52.286;21.124;2023-06-14T07:51:30;9.02;;;5.70;;
16699;SDS011;8466;52.286;21.124;2023-06-14T07:53:59;5.80;;;4.80;;
16699;SDS011;8466;52.286;21.124;2023-06-14T07:56:30;6.18;;;5.28;;
16699;SDS011;8466;52.286;21.124;2023-06-14T07:58:59;5.40;;;4.60;;
16699;SDS011;8466;52.286;21.124;2023-06-14T08:01:27;5.00;;;4.50;;
16699;SDS011;8466;52.286;21.124;2023-06-14T08:03:56;5.45;;;4.40;;
16699;SDS011;8466;52.286;21.124;2023-06-14T08:06:25;6.32;;;4.28;;
16699;SDS011;8466;52.286;21.124;2023-06-14T08:08:54;7.75;;;3.78;;
16699;SDS011;8466;52.286;21.124;2023-06-14T08:11:22;4.13;;;3.72;;
16699;SDS011;8466;52.286;21.124;2023-06-14T08:13:53;7.30;;;3.63;;
16699;SDS011;8466;52.286;21.124;2023-06-14T08:16:22;6.35;;;4.55;;
16699;SDS011;8466;52.286;21.124;2023-06-14T08:18:51;6.88;;;4.00;;
16699;SDS011;8466;52.286;21.124;2023-06-14T08:21:20;7.13;;;4.38;;
16699;SDS011;8466;52.286;21.124;2023-06-14T08:23:49;4.85;;;4.38;;
16699;SDS011;8466;52.286;21.124;2023-06-14T08:26:19;5.68;;;3.67;;
16699;SDS011;8466;52.286;21.124;2023-06-14T08:28:48;4.95;;;4.45;;
16699;SDS011;8466;52.286;21.124;2023-06-14T08:31:18;4.55;;;4.15;;
16699;SDS011;8466;52.286;21.124;2023-06-14T08:33:47;5.00;;;3.75;;
16699;SDS011;8466;52.286;21.124;2023-06-14T08:36:16;6.85;;;4.60;;
16699;SDS011;8466;52.286;21.124;2023-06-14T08:38:45;4.60;;;4.20;;
16699;SDS011;8466;52.286;21.124;2023-06-14T08:41:16;4.68;;;4.18;;
16699;SDS011;8466;52.286;21.124;2023-06-14T08:43:50;4.82;;;4.25;;
16699;SDS011;8466;52.286;21.124;2023-06-14T08:46:20;6.13;;;4.43;;
16699;SDS011;8466;52.286;21.124;2023-06-14T08:48:49;8.00;;;4.20;;
16699;SDS011;8466;52.286;21.124;2023-06-14T08:51:20;9.88;;;4.63;;
16699;SDS011;8466;52.286;21.124;2023-06-14T08:53:53;4.60;;;3.72;;
16699;SDS011;8466;52.286;21.124;2023-06-14T08:56:24;7.63;;;4.60;;
16699;SDS011;8466;52.286;21.124;2023-06-14T08:58:54;6.63;;;3.97;;
16699;SDS011;8466;52.286;21.124;2023-06-14T09:01:25;6.70;;;3.80;;
16699;SDS011;8466;52.286;21.124;2023-06-14T09:03:58;4.97;;;3.85;;
16699;SDS011;8466;52.286;21.124;2023-06-14T09:06:27;7.28;;;3.97;;
16699;SDS011;8466;52.286;21.124;2023-06-14T09:08:56;4.68;;;3.72;;
16699;SDS011;8466;52.286;21.124;2023-06-14T09:11:26;4.07;;;3.67;;
16699;SDS011;8466;52.286;21.124;2023-06-14T09:13:55;6.00;;;3.70;;
16699;SDS011;8466;52.286;21.124;2023-06-14T09:16:23;8.10;;;3.88;;
16699;SDS011;8466;52.286;21.124;2023-06-14T09:18:55;5.03;;;3.55;;
16699;SDS011;8466;52.286;21.124;2023-06-14T09:21:25;4.30;;;3.90;;
16699;SDS011;8466;52.286;21.124;2023-06-14T09:23:57;7.95;;;4.63;;
16699;SDS011;8466;52.286;21.124;2023-06-14T09:26:28;7.30;;;5.07;;
16699;SDS011;8466;52.286;21.124;2023-06-14T09:28:57;4.93;;;4.43;;
16699;SDS011;8466;52.286;21.124;2023-06-14T09:31:35;8.10;;;4.90;;
16699;SDS011;8466;52.286;21.124;2023-06-14T09:34:04;5.07;;;4.63;;
16699;SDS011;8466;52.286;21.124;2023-06-14T09:36:43;5.65;;;5.15;;
16699;SDS011;8466;52.286;21.124;2023-06-14T09:39:17;8.07;;;5.18;;
16699;SDS011;8466;52.286;21.124;2023-06-14T09:41:46;6.18;;;4.60;;
16699;SDS011;8466;52.286;21.124;2023-06-14T09:44:16;5.20;;;4.78;;
16699;SDS011;8466;52.286;21.124;2023-06-14T09:46:49;5.10;;;4.70;;
16699;SDS011;8466;52.286;21.124;2023-06-14T09:49:19;5.40;;;3.97;;
16699;SDS011;8466;52.286;21.124;2023-06-14T09:51:50;6.65;;;4.22;;
16699;SDS011;8466;52.286;21.124;2023-06-14T09:54:23;5.77;;;4.37;;
16699;SDS011;8466;52.286;21.124;2023-06-14T09:57:09;6.15;;;3.97;;
16699;SDS011;8466;52.286;21.124;2023-06-14T09:59:40;4.63;;;3.67;;
16699;SDS011;8466;52.286;21.124;2023-06-14T10:02:21;4.20;;;3.80;;
16699;SDS011;8466;52.286;21.124;2023-06-14T10:04:55;10.25;;;3.85;;
16699;SDS011;8466;52.286;21.124;2023-06-14T10:07:32;5.03;;;3.63;;
16699;SDS011;8466;52.286;21.124;2023-06-14T10:10:07;3.85;;;3.47;;
16699;SDS011;8466;52.286;21.124;2023-06-14T10:12:38;4.38;;;3.45;;
16699;SDS011;8466;52.286;21.124;2023-06-14T10:15:08;5.15;;;3.50;;
16699;SDS011;8466;52.286;21.124;2023-06-14T10:17:43;6.72;;;3.40;;
16699;SDS011;8466;52.286;21.124;2023-06-14T10:20:20;6.60;;;3.60;;
16699;SDS011;8466;52.286;21.124;2023-06-14T10:22:58;5.90;;;3.25;;
16699;SDS011;8466;52.286;21.124;2023-06-14T10:25:31;5.47;;;3.35;;
16699;SDS011;8466;52.286;21.124;2023-06-14T10:28:14;5.50;;;3.47;;
16699;SDS011;8466;52.286;21.124;2023-06-14T10:33:36;7.82;;;3.70;;
16699;SDS011;8466;52.286;21.124;2023-06-14T10:36:10;6.65;;;3.80;;
16699;SDS011;8466;52.286;21.124;2023-06-14T10:38:58;5.72;;;3.83;;
16699;SDS011;8466;52.286;21.124;2023-06-14T10:41:29;6.05;;;3.60;;
16699;SDS011;8466;52.286;21.124;2023-06-14T10:47:22;4.53;;;3.42;;
16699;SDS011;8466;52.286;21.124;2023-06-14T10:49:56;5.63;;;3.45;;
16699;SDS011;8466;52.286;21.124;2023-06-14T10:52:32;7.60;;;3.83;;
16699;SDS011;8466;52.286;21.124;2023-06-14T10:55:03;4.30;;;3.63;;
16699;SDS011;8466;52.286;21.124;2023-06-14T10:57:36;5.43;;;3.42;;
16699;SDS011;8466;52.286;21.124;2023-06-14T11:00:17;6.35;;;4.25;;
16699;SDS011;8466;52.286;21.124;2023-06-14T11:06:15;5.57;;;3.70;;
16699;SDS011;8466;52.286;21.124;2023-06-14T11:11:54;3.53;;;3.15;;
16699;SDS011;8466;52.286;21.124;2023-06-14T11:14:25;3.80;;;2.80;;
16699;SDS011;8466;52.286;21.124;2023-06-14T11:16:57;4.65;;;2.80;;
16699;SDS011;8466;52.286;21.124;2023-06-14T11:19:27;3.28;;;2.97;;
16699;SDS011;8466;52.286;21.124;2023-06-14T11:21:57;3.13;;;2.60;;
16699;SDS011;8466;52.286;21.124;2023-06-14T11:24:27;5.90;;;2.70;;
16699;SDS011;8466;52.286;21.124;2023-06-14T11:26:56;3.30;;;2.85;;
16699;SDS011;8466;52.286;21.124;2023-06-14T11:29:25;3.17;;;2.90;;
16699;SDS011;8466;52.286;21.124;2023-06-14T11:31:57;6.45;;;2.90;;
16699;SDS011;8466;52.286;21.124;2023-06-14T11:34:29;4.00;;;2.50;;
16699;SDS011;8466;52.286;21.124;2023-06-14T11:37:00;4.75;;;2.60;;
16699;SDS011;8466;52.286;21.124;2023-06-14T11:39:29;4.32;;;2.17;;
16699;SDS011;8466;52.286;21.124;2023-06-14T11:41:58;4.97;;;2.58;;
16699;SDS011;8466;52.286;21.124;2023-06-14T11:44:28;5.65;;;2.67;;
16699;SDS011;8466;52.286;21.124;2023-06-14T11:46:57;5.13;;;2.78;;
16699;SDS011;8466;52.286;21.124;2023-06-14T11:49:26;6.18;;;2.83;;
16699;SDS011;8466;52.286;21.124;2023-06-14T11:51:55;4.25;;;2.45;;
16699;SDS011;8466;52.286;21.124;2023-06-14T11:54:25;2.60;;;2.10;;
16699;SDS011;8466;52.286;21.124;2023-06-14T11:56:55;3.08;;;2.20;;
16699;SDS011;8466;52.286;21.124;2023-06-14T11:59:24;6.65;;;2.30;;
16699;SDS011;8466;52.286;21.124;2023-06-14T12:01:53;5.10;;;1.90;;
16699;SDS011;8466;52.286;21.124;2023-06-14T12:04:26;6.75;;;2.63;;
16699;SDS011;8466;52.286;21.124;2023-06-14T12:06:55;3.22;;;2.30;;
16699;SDS011;8466;52.286;21.124;2023-06-14T12:09:25;3.88;;;2.35;;
16699;SDS011;8466;52.286;21.124;2023-06-14T12:11:59;9.68;;;2.88;;
16699;SDS011;8466;52.286;21.124;2023-06-14T12:14:30;3.25;;;2.72;;
16699;SDS011;8466;52.286;21.124;2023-06-14T12:17:03;3.72;;;2.75;;
16699;SDS011;8466;52.286;21.124;2023-06-14T12:19:36;2.63;;;2.42;;
16699;SDS011;8466;52.286;21.124;2023-06-14T12:22:10;3.92;;;2.90;;
16699;SDS011;8466;52.286;21.124;2023-06-14T12:24:43;5.60;;;2.70;;
16699;SDS011;8466;52.286;21.124;2023-06-14T12:27:16;2.60;;;2.40;;
16699;SDS011;8466;52.286;21.124;2023-06-14T12:29:47;3.38;;;2.80;;
16699;SDS011;8466;52.286;21.124;2023-06-14T12:32:27;2.85;;;2.20;;
16699;SDS011;8466;52.286;21.124;2023-06-14T12:34:57;2.67;;;2.47;;
16699;SDS011;8466;52.286;21.124;2023-06-14T12:37:26;4.10;;;2.10;;
16699;SDS011;8466;52.286;21.124;2023-06-14T12:39:57;3.75;;;2.20;;
16699;SDS011;8466;52.286;21.124;2023-06-14T12:42:26;4.63;;;1.67;;
16699;SDS011;8466;52.286;21.124;2023-06-14T12:44:57;4.40;;;2.20;;
16699;SDS011;8466;52.286;21.124;2023-06-14T12:47:29;1.70;;;1.60;;
16699;SDS011;8466;52.286;21.124;2023-06-14T12:49:58;1.95;;;1.70;;
16699;SDS011;8466;52.286;21.124;2023-06-14T12:52:27;4.15;;;2.40;;
16699;SDS011;8466;52.286;21.124;2023-06-14T12:54:58;6.15;;;2.20;;
16699;SDS011;8466;52.286;21.124;2023-06-14T12:57:27;3.72;;;2.00;;
16699;SDS011;8466;52.286;21.124;2023-06-14T12:59:56;2.03;;;1.92;;
16699;SDS011;8466;52.286;21.124;2023-06-14T13:02:25;2.67;;;2.22;;
16699;SDS011;8466;52.286;21.124;2023-06-14T13:04:54;5.45;;;2.20;;
16699;SDS011;8466;52.286;21.124;2023-06-14T13:07:25;3.75;;;2.40;;
16699;SDS011;8466;52.286;21.124;2023-06-14T13:09:53;2.92;;;2.30;;
16699;SDS011;8466;52.286;21.124;2023-06-14T13:12:24;2.38;;;2.10;;
16699;SDS011;8466;52.286;21.124;2023-06-14T13:14:52;2.50;;;2.30;;
16699;SDS011;8466;52.286;21.124;2023-06-14T13:17:22;2.60;;;2.40;;
16699;SDS011;8466;52.286;21.124;2023-06-14T13:19:50;3.20;;;2.20;;
16699;SDS011;8466;52.286;21.124;2023-06-14T13:22:19;3.30;;;2.13;;
16699;SDS011;8466;52.286;21.124;2023-06-14T13:24:48;5.57;;;2.13;;
16699;SDS011;8466;52.286;21.124;2023-06-14T13:27:19;4.22;;;1.95;;
16699;SDS011;8466;52.286;21.124;2023-06-14T13:29:50;2.97;;;2.10;;
16699;SDS011;8466;52.286;21.124;2023-06-14T13:32:20;4.95;;;2.33;;
16699;SDS011;8466;52.286;21.124;2023-06-14T13:34:49;3.35;;;2.35;;
16699;SDS011;8466;52.286;21.124;2023-06-14T13:37:18;2.42;;;2.20;;
16699;SDS011;8466;52.286;21.124;2023-06-14T13:39:47;8.30;;;2.55;;
16699;SDS011;8466;52.286;21.124;2023-06-14T13:42:16;5.25;;;2.28;;
16699;SDS011;8466;52.286;21.124;2023-06-14T13:44:45;3.22;;;2.10;;
16699;SDS011;8466;52.286;21.124;2023-06-14T13:47:16;7.88;;;2.53;;
16699;SDS011;8466;52.286;21.124;2023-06-14T13:49:44;3.13;;;2.30;;
16699;SDS011;8466;52.286;21.124;2023-06-14T13:52:13;5.90;;;2.08;;
16699;SDS011;8466;52.286;21.124;2023-06-14T13:54:43;2.85;;;2.20;;
16699;SDS011;8466;52.286;21.124;2023-06-14T13:57:14;2.50;;;2.30;;
16699;SDS011;8466;52.286;21.124;2023-06-14T13:59:43;3.05;;;1.90;;
16699;SDS011;8466;52.286;21.124;2023-06-14T14:02:13;4.28;;;2.13;;
16699;SDS011;8466;52.286;21.124;2023-06-14T14:04:43;2.30;;;2.10;;
16699;SDS011;8466;52.286;21.124;2023-06-14T14:07:21;4.28;;;2.17;;
16699;SDS011;8466;52.286;21.124;2023-06-14T14:09:50;3.25;;;2.33;;
16699;SDS011;8466;52.286;21.124;2023-06-14T14:12:20;5.15;;;2.28;;
16699;SDS011;8466;52.286;21.124;2023-06-14T14:14:48;4.88;;;2.80;;
16699;SDS011;8466;52.286;21.124;2023-06-14T14:17:18;6.55;;;2.65;;
16699;SDS011;8466;52.286;21.124;2023-06-14T14:19:48;4.13;;;2.83;;
16699;SDS011;8466;52.286;21.124;2023-06-14T14:22:17;3.78;;;2.40;;
16699;SDS011;8466;52.286;21.124;2023-06-14T14:24:46;3.22;;;2.50;;
16699;SDS011;8466;52.286;21.124;2023-06-14T14:27:15;2.78;;;2.30;;
16699;SDS011;8466;52.286;21.124;2023-06-14T14:29:43;3.72;;;2.03;;
16699;SDS011;8466;52.286;21.124;2023-06-14T14:32:12;3.80;;;2.20;;
16699;SDS011;8466;52.286;21.124;2023-06-14T14:34:41;3.30;;;1.90;;
16699;SDS011;8466;52.286;21.124;2023-06-14T14:37:13;5.82;;;2.40;;
16699;SDS011;8466;52.286;21.124;2023-06-14T14:39:45;3.53;;;2.28;;
16699;SDS011;8466;52.286;21.124;2023-06-14T14:42:14;2.38;;;2.17;;
16699;SDS011;8466;52.286;21.124;2023-06-14T14:44:46;2.75;;;2.30;;
16699;SDS011;8466;52.286;21.124;2023-06-14T14:47:20;3.90;;;2.30;;
16699;SDS011;8466;52.286;21.124;2023-06-14T14:49:49;3.03;;;2.35;;
16699;SDS011;8466;52.286;21.124;2023-06-14T14:52:20;3.83;;;2.65;;
16699;SDS011;8466;52.286;21.124;2023-06-14T14:54:50;3.95;;;2.45;;
16699;SDS011;8466;52.286;21.124;2023-06-14T14:57:19;5.10;;;2.08;;
16699;SDS011;8466;52.286;21.124;2023-06-14T14:59:49;3.03;;;2.20;;
16699;SDS011;8466;52.286;21.124;2023-06-14T15:02:19;2.55;;;2.10;;
16699;SDS011;8466;52.286;21.124;2023-06-14T15:04:55;3.42;;;2.25;;
16699;SDS011;8466;52.286;21.124;2023-06-14T15:07:30;4.15;;;2.38;;
16699;SDS011;8466;52.286;21.124;2023-06-14T15:10:21;5.55;;;2.58;;
16699;SDS011;8466;52.286;21.124;2023-06-14T15:12:53;5.45;;;2.38;;
16699;SDS011;8466;52.286;21.124;2023-06-14T15:15:22;2.90;;;2.38;;